createdAt,value
2023-01-08T00:01:35.257Z,94836.88
2023-01-08T00:04:03.195Z,94862.63
2023-01-08T00:06:31.074Z,94868.34
2023-01-08T00:08:58.533Z,94871.19
2023-01-08T00:11:26.067Z,94863.16
2023-01-08T00:13:53.566Z,94862.13
2023-01-08T00:16:22.129Z,94853.31
2023-01-08T00:18:51.002Z,94863.41
2023-01-08T00:21:18.587Z,94856.44
2023-01-08T00:23:46.085Z,94831.53
2023-01-08T00:26:14.424Z,94841.38
2023-01-08T00:28:42.878Z,94838.00
2023-01-08T00:31:12.552Z,94821.38
2023-01-08T00:33:41.141Z,94818.00
2023-01-08T00:36:12.831Z,94839.31
2023-01-08T00:38:40.344Z,94844.22
2023-01-08T00:41:08.534Z,94842.44
2023-01-08T00:43:36.478Z,94826.59
2023-01-08T00:46:04.175Z,94827.38
2023-01-08T00:48:33.417Z,94814.41
2023-01-08T00:51:03.037Z,94831.53
2023-01-08T00:53:31.866Z,94835.69
2023-01-08T00:56:03.060Z,94830.50
2023-01-08T00:58:30.714Z,94834.38
2023-01-08T01:00:58.262Z,94842.94
2023-01-08T01:03:26.000Z,94835.91
2023-01-08T01:06:01.311Z,94842.94
2023-01-08T01:08:28.872Z,94800.88
2023-01-08T01:10:58.299Z,94838.00
2023-01-08T01:13:26.025Z,94843.72
2023-01-08T01:16:00.252Z,94824.75
2023-01-08T01:18:28.536Z,94846.31
2023-01-08T01:20:56.195Z,94827.88
2023-01-08T01:23:23.648Z,94830.19
2023-01-08T01:25:51.406Z,94845.25
2023-01-08T01:28:20.408Z,94837.22
2023-01-08T01:30:54.896Z,94831.75
2023-01-08T01:33:22.508Z,94827.06
2023-01-08T01:35:49.972Z,94841.09
2023-01-08T01:38:17.452Z,94833.06
2023-01-08T01:40:45.330Z,94833.84
2023-01-08T01:43:14.706Z,94819.28
2023-01-08T01:45:43.961Z,94832.03
2023-01-08T01:48:14.831Z,94803.97
2023-01-08T01:50:47.126Z,94827.09
2023-01-08T01:53:20.488Z,94819.81
2023-01-08T01:55:48.909Z,94815.94
2023-01-08T01:58:18.491Z,94827.38
2023-01-08T02:00:48.033Z,94800.09
2023-01-08T02:03:16.887Z,94789.72
2023-01-08T02:05:51.615Z,94809.97
2023-01-08T02:08:26.669Z,94816.47
2023-01-08T02:10:59.591Z,94812.31
2023-01-08T02:13:30.568Z,94799.56
2023-01-08T02:16:04.095Z,94798.03
2023-01-08T02:18:39.446Z,94792.06
2023-01-08T02:21:11.187Z,94798.03
2023-01-08T02:23:47.203Z,94784.53
2023-01-08T02:26:19.912Z,94738.31
2023-01-08T02:28:51.788Z,94767.69
2023-01-08T02:31:21.203Z,94767.69
2023-01-08T02:33:48.824Z,94754.72
2023-01-08T02:36:31.193Z,94752.13
2023-01-08T02:39:15.386Z,94749.50
2023-01-08T02:41:56.480Z,94736.53
2023-01-08T02:44:33.584Z,94733.94
2023-01-08T02:47:03.699Z,94732.91
2023-01-08T02:49:35.700Z,94725.63
2023-01-08T02:52:06.113Z,94744.56
2023-01-08T02:54:36.072Z,94734.19
2023-01-08T02:57:10.907Z,94732.63
2023-01-08T02:59:41.258Z,94734.19
2023-01-08T03:02:09.066Z,94724.59
2023-01-08T03:04:41.068Z,94727.44
2023-01-08T03:07:08.518Z,94731.06
2023-01-08T03:09:36.600Z,94723.81
2023-01-08T03:12:10.564Z,94717.56
2023-01-08T03:14:42.249Z,94723.81
2023-01-08T03:17:18.530Z,94721.47
2023-01-08T03:19:50.650Z,94722.25
2023-01-08T03:22:19.107Z,94718.88
2023-01-08T03:24:50.382Z,94719.13
2023-01-08T03:27:23.349Z,94725.88
2023-01-08T03:29:53.636Z,94717.56
2023-01-08T03:32:25.000Z,94728.97
2023-01-08T03:34:56.913Z,94737.78
2023-01-08T03:37:28.613Z,94731.84
2023-01-08T03:40:00.177Z,94725.34
2023-01-08T03:42:32.039Z,94730.81
2023-01-08T03:44:59.693Z,94723.25
2023-01-08T03:47:30.147Z,94729.78
2023-01-08T03:50:01.590Z,94724.59
2023-01-08T03:52:32.748Z,94715.50
2023-01-08T03:55:00.609Z,94714.97
2023-01-08T03:57:29.362Z,94708.22
2023-01-08T03:59:56.785Z,94713.19
2023-01-08T04:02:24.374Z,94714.72
2023-01-08T04:04:51.929Z,94706.69
2023-01-08T04:07:19.541Z,94683.34
2023-01-08T04:09:46.988Z,94701.50
2023-01-08T04:12:14.405Z,94691.91
2023-01-08T04:14:43.148Z,94692.41
2023-01-08T04:17:12.440Z,94705.91
2023-01-08T04:19:39.981Z,94702.28
2023-01-08T04:22:07.436Z,94688.25
2023-01-08T04:24:34.883Z,94702.78
2023-01-08T04:27:02.358Z,94689.28
2023-01-08T04:29:29.830Z,94688.53
2023-01-08T04:31:58.601Z,94693.44
2023-01-08T04:34:26.025Z,94671.94
2023-01-08T04:36:53.480Z,94682.03
2023-01-08T04:39:20.887Z,94663.09
2023-01-08T04:41:48.296Z,94693.97
2023-01-08T04:44:15.747Z,94677.88
2023-01-08T04:46:43.234Z,94695.78
2023-01-08T04:49:12.668Z,94689.81
2023-01-08T04:51:40.332Z,94690.09
2023-01-08T04:54:07.798Z,94673.72
2023-01-08T04:56:35.232Z,94680.75
2023-01-08T04:59:05.625Z,94677.13
2023-01-08T05:01:33.241Z,94671.16
2023-01-08T05:04:02.761Z,94651.41
2023-01-08T05:06:32.598Z,94655.88
2023-01-08T05:09:00.384Z,94660.25
2023-01-08T05:11:27.967Z,94669.59
2023-01-08T05:13:56.468Z,94675.56
2023-01-08T05:16:24.458Z,94659.22
2023-01-08T05:18:52.195Z,94667.50
2023-01-08T05:21:19.679Z,94619.50
2023-01-08T05:23:48.857Z,94654.50
2023-01-08T05:26:17.449Z,94640.78
2023-01-08T05:28:44.885Z,94650.63
2023-01-08T05:31:12.572Z,94657.88
2023-01-08T05:33:40.185Z,94665.16
2023-01-08T05:36:09.125Z,94662.81
2023-01-08T05:38:36.645Z,94664.63
2023-01-08T05:41:06.302Z,94661.53
2023-01-08T05:43:34.312Z,94666.44
2023-01-08T05:46:02.609Z,94659.97
2023-01-08T05:48:32.628Z,94649.34
2023-01-08T05:51:00.130Z,94645.19
2023-01-08T05:53:27.589Z,94659.22
2023-01-08T05:56:00.265Z,94634.56
2023-01-08T05:58:29.468Z,94663.38
2023-01-08T06:01:02.567Z,94633.06
2023-01-08T06:03:30.060Z,94659.50
2023-01-08T06:05:59.757Z,94658.47
2023-01-08T06:08:27.176Z,94665.22
2023-01-08T06:10:54.616Z,94650.19
2023-01-08T06:13:22.025Z,94646.28
2023-01-08T06:15:50.797Z,94648.34
2023-01-08T06:18:18.218Z,94658.19
2023-01-08T06:20:45.644Z,94645.50
2023-01-08T06:23:13.058Z,94640.84
2023-01-08T06:25:40.488Z,94655.09
2023-01-08T06:28:08.346Z,94633.03
2023-01-08T06:30:35.789Z,94656.66
2023-01-08T06:33:04.740Z,94657.44
2023-01-08T06:35:32.129Z,94666.25
2023-01-08T06:37:59.517Z,94672.47
2023-01-08T06:40:26.930Z,94669.09
2023-01-08T06:42:54.324Z,94673.75
2023-01-08T06:45:21.874Z,94669.84
2023-01-08T06:47:49.318Z,94665.16
2023-01-08T06:50:18.116Z,94674.78
2023-01-08T06:52:45.495Z,94668.31
2023-01-08T06:55:12.906Z,94675.53
2023-01-08T06:57:41.429Z,94672.66
2023-01-08T07:00:09.997Z,94690.03
2023-01-08T07:02:37.596Z,94683.53
2023-01-08T07:05:05.720Z,94687.66
2023-01-08T07:07:34.925Z,94693.63
2023-01-08T07:10:02.301Z,94670.78
2023-01-08T07:12:29.716Z,94686.06
2023-01-08T07:14:57.356Z,94685.31
2023-01-08T07:17:24.765Z,94688.66
2023-01-08T07:19:52.175Z,94672.56
2023-01-08T07:22:20.088Z,94677.75
2023-01-08T07:24:48.795Z,94691.72
2023-01-08T07:27:16.213Z,94668.66
2023-01-08T07:29:43.593Z,94691.47
2023-01-08T07:32:10.996Z,94677.69
2023-01-08T07:34:38.391Z,94696.38
2023-01-08T07:37:05.790Z,94686.03
2023-01-08T07:39:34.001Z,94692.53
2023-01-08T07:42:02.730Z,94697.44
2023-01-08T07:44:30.097Z,94677.75
2023-01-08T07:46:57.574Z,94688.41
2023-01-08T07:49:24.975Z,94678.56
2023-01-08T07:51:52.507Z,94697.22
2023-01-08T07:54:19.881Z,94693.34
2023-01-08T07:56:47.342Z,94681.94
2023-01-08T07:59:16.081Z,94694.38
2023-01-08T08:01:43.651Z,94699.84
2023-01-08T08:04:11.436Z,94696.72
2023-01-08T08:06:38.807Z,94694.13
2023-01-08T08:09:06.217Z,94683.47
2023-01-08T08:11:33.635Z,94688.66
2023-01-08T08:14:01.029Z,94688.91
2023-01-08T08:16:29.869Z,94672.59
2023-01-08T08:18:59.011Z,94668.72
2023-01-08T08:21:26.465Z,94683.22
2023-01-08T08:23:53.867Z,94664.81
2023-01-08T08:26:21.340Z,94673.88
2023-01-08T08:28:48.753Z,94674.13
2023-01-08T08:31:16.364Z,94677.72
2023-01-08T08:33:45.145Z,94676.69
2023-01-08T08:36:12.593Z,94674.63
2023-01-08T08:38:40.777Z,94661.44
2023-01-08T08:41:08.215Z,94671.81
2023-01-08T08:43:35.675Z,94668.44
2023-01-08T08:46:03.123Z,94665.84
2023-01-08T08:48:30.534Z,94667.41
2023-01-08T08:50:59.328Z,94646.94
2023-01-08T08:53:27.735Z,94649.03
2023-01-08T08:55:55.295Z,94652.88
2023-01-08T08:58:22.694Z,94649.25
2023-01-08T09:00:50.125Z,94641.75
2023-01-08T09:03:17.750Z,94639.16
2023-01-08T09:05:45.252Z,94631.13
2023-01-08T09:08:14.052Z,94636.56
2023-01-08T09:10:43.437Z,94629.31
2023-01-08T09:13:11.211Z,94623.56
2023-01-08T09:15:39.325Z,94636.78
2023-01-08T09:18:07.234Z,94628.25
2023-01-08T09:20:34.737Z,94639.41
2023-01-08T09:23:03.640Z,94633.47
2023-01-08T09:25:32.420Z,94620.25
2023-01-08T09:28:00.634Z,94622.59
2023-01-08T09:30:28.454Z,94639.19
2023-01-08T09:32:59.266Z,94626.22
2023-01-08T09:35:28.100Z,94631.44
2023-01-08T09:37:56.637Z,94627.81
2023-01-08T09:40:27.812Z,94635.34
2023-01-08T09:43:00.698Z,94632.28
2023-01-08T09:45:31.560Z,94630.19
2023-01-08T09:48:03.119Z,94622.19
2023-01-08T09:50:32.864Z,94605.56
2023-01-08T09:53:01.339Z,94627.88
2023-01-08T09:55:33.375Z,94613.63
2023-01-08T09:58:03.504Z,94619.56
2023-01-08T10:00:34.685Z,94602.44
2023-01-08T10:03:02.373Z,94617.50
2023-01-08T10:05:30.771Z,94617.50
2023-01-08T10:07:58.640Z,94613.84
2023-01-08T10:10:30.294Z,94601.16
2023-01-08T10:12:57.810Z,94600.13
2023-01-08T10:15:26.973Z,94592.88
2023-01-08T10:18:01.773Z,94592.06
2023-01-08T10:20:30.906Z,94600.38
2023-01-08T10:23:10.198Z,94592.59
2023-01-08T10:25:50.462Z,94588.44
2023-01-08T10:28:21.849Z,94588.72
2023-01-08T10:30:51.825Z,94585.63
2023-01-08T10:33:21.904Z,94574.97
2023-01-08T10:35:56.593Z,94571.34
2023-01-08T10:38:33.085Z,94572.38
2023-01-08T10:41:04.145Z,94561.47
2023-01-08T10:43:36.797Z,94567.19
2023-01-08T10:46:08.740Z,94554.75
2023-01-08T10:48:40.080Z,94561.47
2023-01-08T10:51:15.427Z,94543.84
2023-01-08T10:53:43.071Z,94539.47
2023-01-08T10:56:20.054Z,94539.19
2023-01-08T10:58:47.719Z,94510.41
2023-01-08T11:01:21.461Z,94519.72
2023-01-08T11:03:51.914Z,94524.38
2023-01-08T11:06:22.884Z,94517.88
2023-01-08T11:08:52.381Z,94521.00
2023-01-08T11:11:20.765Z,94519.47
2023-01-08T11:13:59.121Z,94505.69
2023-01-08T11:16:36.538Z,94515.75
2023-01-08T11:19:05.439Z,94522.97
2023-01-08T11:21:36.084Z,94514.13
2023-01-08T11:24:12.288Z,94488.50
2023-01-08T11:26:43.006Z,94512.03
2023-01-08T11:29:16.132Z,94505.47
2023-01-08T11:31:53.993Z,94508.06
2023-01-08T11:34:27.284Z,94491.78
2023-01-08T11:37:00.171Z,94481.47
2023-01-08T11:39:27.761Z,94502.44
2023-01-08T11:42:10.988Z,94507.66
2023-01-08T11:44:46.427Z,94490.78
2023-01-08T11:47:26.483Z,94476.38
2023-01-08T11:50:14.581Z,94492.66
2023-01-08T11:52:56.510Z,94474.00
2023-01-08T11:55:42.569Z,94473.19
2023-01-08T11:58:23.134Z,94483.59
2023-01-08T12:01:04.673Z,94488.75
2023-01-08T12:03:37.665Z,94472.66
2023-01-08T12:06:16.001Z,94458.38
2023-01-08T12:08:55.825Z,94459.41
2023-01-08T12:11:27.519Z,94452.84
2023-01-08T12:14:06.995Z,94450.25
2023-01-08T12:16:47.846Z,94447.69
2023-01-08T12:19:24.505Z,94466.13
2023-01-08T12:22:06.350Z,94458.59
2023-01-08T12:24:51.077Z,94463.72
2023-01-08T12:27:55.304Z,94437.97
2023-01-08T12:30:32.268Z,94446.88
2023-01-08T12:33:03.719Z,94450.97
2023-01-08T12:35:37.409Z,94450.25
2023-01-08T12:38:11.277Z,94455.41
2023-01-08T12:40:43.033Z,94459.56
2023-01-08T12:43:15.819Z,94438.66
2023-01-08T12:45:46.075Z,94443.84
2023-01-08T12:48:17.550Z,94423.91
2023-01-08T12:50:58.365Z,94444.94
2023-01-08T12:53:35.999Z,94440.00
2023-01-08T12:56:09.964Z,94445.19
2023-01-08T12:58:52.052Z,94433.50
2023-01-08T13:01:32.803Z,94430.66
2023-01-08T13:04:04.126Z,94429.06
2023-01-08T13:06:32.930Z,94425.72
2023-01-08T13:09:01.798Z,94398.53
2023-01-08T13:11:31.459Z,94424.41
2023-01-08T13:14:04.632Z,94417.91
2023-01-08T13:16:38.893Z,94430.88
2023-01-08T13:19:08.083Z,94424.16
2023-01-08T13:21:38.809Z,94388.72
2023-01-08T13:24:22.815Z,94411.44
2023-01-08T13:26:50.348Z,94391.78
2023-01-08T13:29:27.901Z,94416.16
2023-01-08T13:31:55.537Z,94399.59
2023-01-08T13:34:38.727Z,94409.47
2023-01-08T13:37:11.472Z,94410.81
2023-01-08T13:39:44.054Z,94395.78
2023-01-08T13:42:28.374Z,94385.75
2023-01-08T13:45:01.126Z,94382.66
2023-01-08T13:47:32.753Z,94383.22
2023-01-08T13:50:03.584Z,94371.28
2023-01-08T13:52:37.547Z,94372.59
2023-01-08T13:55:12.596Z,94371.78
2023-01-08T13:57:43.526Z,94381.69
2023-01-08T14:00:20.079Z,94369.75
2023-01-08T14:02:50.353Z,94379.63
2023-01-08T14:05:24.236Z,94370.81
2023-01-08T14:07:53.146Z,94373.41
2023-01-08T14:10:21.613Z,94358.09
2023-01-08T14:12:51.262Z,94351.09
2023-01-08T14:15:23.202Z,94356.53
2023-01-08T14:17:51.308Z,94345.63
2023-01-08T14:20:31.066Z,94357.78
2023-01-08T14:23:00.496Z,94353.16
2023-01-08T14:25:28.026Z,94337.88
2023-01-08T14:27:57.705Z,94331.16
2023-01-08T14:30:25.853Z,94336.59
2023-01-08T14:32:54.848Z,94338.91
2023-01-08T14:35:28.989Z,94331.41
2023-01-08T14:37:56.820Z,94318.19
2023-01-08T14:40:38.679Z,94338.69
2023-01-08T14:43:10.319Z,94330.38
2023-01-08T14:45:40.913Z,94335.59
2023-01-08T14:48:16.342Z,94324.75
2023-01-08T14:50:46.382Z,94329.41
2023-01-08T14:53:27.326Z,94327.34
2023-01-08T14:55:58.658Z,94326.00
2023-01-08T14:58:29.071Z,94332.75
2023-01-08T15:00:59.815Z,94314.09
2023-01-08T15:03:33.736Z,94313.84
2023-01-08T15:06:01.727Z,94316.97
2023-01-08T15:08:35.669Z,94302.47
2023-01-08T15:11:06.028Z,94311.28
2023-01-08T15:13:35.473Z,94297.31
2023-01-08T15:16:08.634Z,94303.56
2023-01-08T15:18:44.083Z,94301.50
2023-01-08T15:21:17.004Z,94305.38
2023-01-08T15:23:49.648Z,94294.25
2023-01-08T15:26:19.027Z,94293.47
2023-01-08T15:28:52.912Z,94297.88
2023-01-08T15:31:29.114Z,94295.81
2023-01-08T15:33:56.906Z,94292.72
2023-01-08T15:36:24.380Z,94291.69
2023-01-08T15:38:52.206Z,94289.84
2023-01-08T15:41:37.423Z,94283.91
2023-01-08T15:44:06.347Z,94290.16
2023-01-08T15:46:33.848Z,94280.84
2023-01-08T15:49:01.267Z,94272.03
2023-01-08T15:51:30.912Z,94275.16
2023-01-08T15:53:58.382Z,94280.31
2023-01-08T15:56:27.136Z,94272.56
2023-01-08T15:58:54.586Z,94272.34
2023-01-08T16:01:22.216Z,94257.34
2023-01-08T16:03:50.189Z,94253.44
2023-01-08T16:06:17.619Z,94271.84
2023-01-08T16:08:46.114Z,94275.97
2023-01-08T16:11:14.235Z,94278.28
2023-01-08T16:13:42.998Z,94246.75
2023-01-08T16:16:11.027Z,94261.50
2023-01-08T16:18:38.766Z,94272.59
2023-01-08T16:21:06.874Z,94247.78
2023-01-08T16:23:35.395Z,94270.00
2023-01-08T16:26:06.570Z,94259.16
2023-01-08T16:28:34.008Z,94285.53
2023-01-08T16:31:03.219Z,94264.84
2023-01-08T16:33:30.721Z,94267.69
2023-01-08T16:35:58.684Z,94263.06
2023-01-08T16:38:26.482Z,94249.84
2023-01-08T16:40:54.037Z,94233.81
2023-01-08T16:43:21.450Z,94244.44
2023-01-08T16:45:49.340Z,94239.78
2023-01-08T16:48:18.341Z,94236.16
2023-01-08T16:50:46.368Z,94227.38
2023-01-08T16:53:14.265Z,94225.56
2023-01-08T16:55:42.396Z,94215.47
2023-01-08T16:58:10.438Z,94217.28
2023-01-08T17:00:38.619Z,94214.44
2023-01-08T17:03:06.640Z,94226.31
2023-01-08T17:05:37.713Z,94220.34
2023-01-08T17:08:05.504Z,94227.56
2023-01-08T17:10:32.982Z,94215.94
2023-01-08T17:13:00.573Z,94215.16
2023-01-08T17:15:28.164Z,94207.66
2023-01-08T17:17:55.848Z,94201.16
2023-01-08T17:20:26.250Z,94207.66
2023-01-08T17:22:55.757Z,94205.06
2023-01-08T17:25:23.290Z,94191.09
2023-01-08T17:27:52.699Z,94199.34
2023-01-08T17:30:21.612Z,94189.75
2023-01-08T17:32:49.174Z,94184.31
2023-01-08T17:35:16.928Z,94176.56
2023-01-08T17:37:44.511Z,94190.50
2023-01-08T17:40:14.441Z,94172.97
2023-01-08T17:42:42.136Z,94157.47
2023-01-08T17:45:10.695Z,94124.13
2023-01-08T17:47:39.036Z,94161.31
2023-01-08T17:50:07.202Z,94157.94
2023-01-08T17:52:34.771Z,94166.25
2023-01-08T17:55:02.371Z,94149.41
2023-01-08T17:57:31.664Z,94122.88
2023-01-08T17:59:59.601Z,94146.06
2023-01-08T18:02:27.671Z,94138.06
2023-01-08T18:04:55.215Z,94141.69
2023-01-08T18:07:23.717Z,94152.50
2023-01-08T18:09:52.809Z,94131.09
2023-01-08T18:12:20.745Z,94132.06
2023-01-08T18:14:49.702Z,94136.22
2023-01-08T18:17:18.002Z,94116.84
2023-01-08T18:19:45.632Z,94127.13
2023-01-08T18:22:13.435Z,94123.00
2023-01-08T18:24:40.917Z,94151.13
2023-01-08T18:27:08.719Z,94145.13
2023-01-08T18:29:36.369Z,94145.34
2023-01-08T18:32:05.631Z,94115.72
2023-01-08T18:34:33.218Z,94141.19
2023-01-08T18:37:00.723Z,94135.47
2023-01-08T18:39:29.817Z,94111.47
2023-01-08T18:42:14.717Z,94129.00
2023-01-08T18:44:42.269Z,94114.53
2023-01-08T18:47:12.499Z,94119.44
2023-01-08T18:49:42.031Z,94117.63
2023-01-08T18:52:10.901Z,94100.63
2023-01-08T18:54:38.664Z,94121.25
2023-01-08T18:57:06.291Z,94052.56
2023-01-08T18:59:33.872Z,94097.41
2023-01-08T19:02:01.889Z,94084.16
2023-01-08T19:04:31.003Z,94092.69
2023-01-08T19:06:58.585Z,94076.91
2023-01-08T19:09:26.229Z,94081.84
2023-01-08T19:11:53.815Z,94035.41
2023-01-08T19:14:21.366Z,94047.28
2023-01-08T19:16:51.324Z,94035.69
2023-01-08T19:19:19.381Z,94046.72
2023-01-08T19:21:48.366Z,94041.50
2023-01-08T19:24:15.978Z,94068.56
2023-01-08T19:26:43.789Z,94065.47
2023-01-08T19:29:11.305Z,94056.41
2023-01-08T19:31:38.903Z,94032.91
2023-01-08T19:34:06.619Z,94038.03
2023-01-08T19:36:34.314Z,94042.69
2023-01-08T19:39:04.762Z,94034.94
2023-01-08T19:41:50.136Z,94002.13
2023-01-08T19:44:17.784Z,94013.78
2023-01-08T19:46:45.401Z,94005.56
2023-01-08T19:49:13.048Z,94011.28
2023-01-08T19:51:40.577Z,94000.97
2023-01-08T19:54:09.521Z,93997.66
2023-01-08T19:56:37.259Z,93972.94
2023-01-08T19:59:04.920Z,93987.38
2023-01-08T20:01:33.537Z,93995.59
2023-01-08T20:04:01.392Z,94000.72
2023-01-08T20:06:29.552Z,93998.41
2023-01-08T20:09:06.889Z,94000.47
2023-01-08T20:11:36.241Z,93995.31
2023-01-08T20:14:05.355Z,93977.50
2023-01-08T20:16:33.343Z,93983.16
2023-01-08T20:19:04.842Z,93987.28
2023-01-08T20:21:35.816Z,93966.06
2023-01-08T20:24:08.745Z,93971.72
2023-01-08T20:26:39.307Z,93937.72
2023-01-08T20:29:07.113Z,93960.31
2023-01-08T20:31:35.319Z,93925.03
2023-01-08T20:34:05.236Z,93916.75
2023-01-08T20:36:34.823Z,93958.41
2023-01-08T20:39:06.101Z,93943.91
2023-01-08T20:41:38.017Z,93949.59
2023-01-08T20:44:06.726Z,93936.41
2023-01-08T20:46:36.002Z,93949.31
2023-01-08T20:49:08.834Z,93956.03
2023-01-08T20:51:39.672Z,93955.47
2023-01-08T20:54:09.734Z,93916.94
2023-01-08T20:56:38.662Z,93947.66
2023-01-08T20:59:09.245Z,93936.56
2023-01-08T21:01:37.034Z,93939.34
2023-01-08T21:04:06.619Z,93931.94
2023-01-08T21:06:35.262Z,93903.31
2023-01-08T21:09:07.446Z,93933.94
2023-01-08T21:11:36.928Z,93929.78
2023-01-08T21:14:08.960Z,93930.13
2023-01-08T21:16:41.657Z,93892.50
2023-01-08T21:19:10.129Z,93894.50
2023-01-08T21:21:40.675Z,93921.75
2023-01-08T21:24:10.765Z,93916.03
2023-01-08T21:26:39.013Z,93905.44
2023-01-08T21:29:09.727Z,93900.56
2023-01-08T21:31:38.724Z,93898.00
2023-01-08T21:34:09.405Z,93906.59
2023-01-08T21:36:38.965Z,93883.91
2023-01-08T21:39:07.175Z,93853.81
2023-01-08T21:41:52.657Z,93899.41
2023-01-08T21:44:40.923Z,93864.88
2023-01-08T21:47:10.855Z,93886.28
2023-01-08T21:49:38.398Z,93865.44
2023-01-08T21:52:24.147Z,93886.59
2023-01-08T21:54:51.890Z,93876.56
2023-01-08T21:57:19.633Z,93868.34
2023-01-08T21:59:51.027Z,93858.09
2023-01-08T22:02:20.772Z,93851.94
2023-01-08T22:04:48.841Z,93863.78
2023-01-08T22:07:17.430Z,93873.97
2023-01-08T22:09:44.857Z,93873.19
2023-01-08T22:12:13.923Z,93870.41
2023-01-08T22:14:41.388Z,93869.94
2023-01-08T22:17:10.362Z,93862.25
2023-01-08T22:19:38.782Z,93858.38
2023-01-08T22:22:08.228Z,93850.44
2023-01-08T22:24:37.803Z,93864.13
2023-01-08T22:27:05.236Z,93857.50
2023-01-08T22:29:32.947Z,93866.00
2023-01-08T22:32:00.521Z,93787.75
2023-01-08T22:34:31.817Z,93857.59
2023-01-08T22:36:59.850Z,93845.03
2023-01-08T22:39:27.811Z,93857.72
2023-01-08T22:41:55.347Z,93860.06
2023-01-08T22:44:23.057Z,93870.38
2023-01-08T22:46:50.531Z,93869.63
2023-01-08T22:49:17.994Z,93867.84
2023-01-08T22:51:46.757Z,93869.41
2023-01-08T22:54:14.798Z,93860.63
2023-01-08T22:56:42.350Z,93854.72
2023-01-08T22:59:09.840Z,93866.84
2023-01-08T23:01:37.392Z,93880.53
2023-01-08T23:04:05.227Z,93883.13
2023-01-08T23:06:33.261Z,93883.38
2023-01-08T23:09:02.072Z,93876.94
2023-01-08T23:11:29.527Z,93882.13
2023-01-08T23:13:57.133Z,93877.47
2023-01-08T23:16:25.812Z,93883.69
2023-01-08T23:18:53.952Z,93875.16
2023-01-08T23:21:24.187Z,93885.47
2023-01-08T23:23:52.048Z,93876.19
2023-01-08T23:26:23.581Z,93862.31
2023-01-08T23:28:52.148Z,93859.75
2023-01-08T23:31:23.031Z,93870.59
2023-01-08T23:33:51.550Z,93862.34
2023-01-08T23:36:20.975Z,93861.31
2023-01-08T23:38:49.701Z,93864.44
2023-01-08T23:41:18.200Z,93855.66
2023-01-08T23:43:48.670Z,93857.97
2023-01-08T23:46:16.608Z,93849.47
2023-01-08T23:48:44.071Z,93851.53
2023-01-08T23:51:11.533Z,93851.78
2023-01-08T23:53:39.027Z,93838.13
2023-01-08T23:56:07.408Z,93853.34
2023-01-08T23:58:34.871Z,93837.63
